sensor_id;sensor_type;location;lat;lon;timestamp;temperature;humidity
1700;DHT22;847;48.058;7.810;2023-09-19T00:02:19;19.10;99.00
1700;DHT22;847;48.058;7.810;2023-09-19T00:04:45;19.10;99.00
1700;DHT22;847;48.058;7.810;2023-09-19T00:07:14;19.10;99.00
1700;DHT22;847;48.058;7.810;2023-09-19T00:09:42;19.00;99.00
1700;DHT22;847;48.058;7.810;2023-09-19T00:12:09;19.00;99.00
1700;DHT22;847;48.058;7.810;2023-09-19T00:14:38;19.10;99.00
1700;DHT22;847;48.058;7.810;2023-09-19T00:17:06;19.00;99.00
1700;DHT22;847;48.058;7.810;2023-09-19T00:19:34;19.00;99.00
1700;DHT22;847;48.058;7.810;2023-09-19T00:22:01;19.00;99.00
1700;DHT22;847;48.058;7.810;2023-09-19T00:24:28;19.00;99.00
1700;DHT22;847;48.058;7.810;2023-09-19T00:26:56;19.00;99.00
1700;DHT22;847;48.058;7.810;2023-09-19T00:29:25;19.00;99.00
1700;DHT22;847;48.058;7.810;2023-09-19T00:31:54;19.00;99.00
1700;DHT22;847;48.058;7.810;2023-09-19T00:34:22;19.00;99.00
1700;DHT22;847;48.058;7.810;2023-09-19T00:36:51;19.00;99.00
1700;DHT22;847;48.058;7.810;2023-09-19T00:39:19;19.00;99.00
1700;DHT22;847;48.058;7.810;2023-09-19T00:41:47;19.00;99.00
1700;DHT22;847;48.058;7.810;2023-09-19T00:44:14;19.00;99.00
1700;DHT22;847;48.058;7.810;2023-09-19T00:46:41;18.90;99.00
1700;DHT22;847;48.058;7.810;2023-09-19T00:49:09;18.90;99.00
1700;DHT22;847;48.058;7.810;2023-09-19T00:51:38;18.90;99.00
1700;DHT22;847;48.058;7.810;2023-09-19T00:54:07;18.90;99.00
1700;DHT22;847;48.058;7.810;2023-09-19T00:56:35;18.90;99.00
1700;DHT22;847;48.058;7.810;2023-09-19T00:59:03;18.90;99.00
1700;DHT22;847;48.058;7.810;2023-09-19T01:01:30;18.90;99.00
1700;DHT22;847;48.058;7.810;2023-09-19T01:03:58;18.90;99.00
1700;DHT22;847;48.058;7.810;2023-09-19T01:06:25;18.90;99.00
1700;DHT22;847;48.058;7.810;2023-09-19T01:08:53;18.90;99.00
1700;DHT22;847;48.058;7.810;2023-09-19T01:11:38;18.90;99.00
1700;DHT22;847;48.058;7.810;2023-09-19T01:14:17;18.90;99.00
1700;DHT22;847;48.058;7.810;2023-09-19T01:16:50;18.80;99.00
1700;DHT22;847;48.058;7.810;2023-09-19T01:19:53;18.80;99.00
1700;DHT22;847;48.058;7.810;2023-09-19T01:22:31;18.80;99.00
1700;DHT22;847;48.058;7.810;2023-09-19T01:25:28;18.70;99.00
1700;DHT22;847;48.058;7.810;2023-09-19T01:28:14;18.70;99.00
1700;DHT22;847;48.058;7.810;2023-09-19T01:30:47;18.80;99.00
1700;DHT22;847;48.058;7.810;2023-09-19T01:33:16;18.80;99.00
1700;DHT22;847;48.058;7.810;2023-09-19T01:35:43;18.80;99.00
1700;DHT22;847;48.058;7.810;2023-09-19T01:38:10;18.80;99.00
1700;DHT22;847;48.058;7.810;2023-09-19T01:40:41;18.70;99.00
1700;DHT22;847;48.058;7.810;2023-09-19T01:43:15;18.70;99.00
1700;DHT22;847;48.058;7.810;2023-09-19T01:45:55;18.80;99.00
1700;DHT22;847;48.058;7.810;2023-09-19T01:48:30;18.70;99.00
1700;DHT22;847;48.058;7.810;2023-09-19T01:51:03;18.70;99.00
1700;DHT22;847;48.058;7.810;2023-09-19T01:53:35;18.70;99.00
1700;DHT22;847;48.058;7.810;2023-09-19T01:56:05;18.70;99.00
1700;DHT22;847;48.058;7.810;2023-09-19T01:58:41;18.70;99.00
1700;DHT22;847;48.058;7.810;2023-09-19T02:01:12;18.70;99.00
1700;DHT22;847;48.058;7.810;2023-09-19T02:03:41;18.70;99.00
1700;DHT22;847;48.058;7.810;2023-09-19T02:06:13;18.60;99.00
1700;DHT22;847;48.058;7.810;2023-09-19T02:08:41;18.60;99.00
1700;DHT22;847;48.058;7.810;2023-09-19T02:11:08;18.60;99.00
1700;DHT22;847;48.058;7.810;2023-09-19T02:13:34;18.70;99.00
1700;DHT22;847;48.058;7.810;2023-09-19T02:16:01;18.70;99.00
1700;DHT22;847;48.058;7.810;2023-09-19T02:18:31;18.60;99.00
1700;DHT22;847;48.058;7.810;2023-09-19T02:21:00;18.70;99.00
1700;DHT22;847;48.058;7.810;2023-09-19T02:23:27;18.70;99.00
1700;DHT22;847;48.058;7.810;2023-09-19T02:25:55;18.60;99.00
1700;DHT22;847;48.058;7.810;2023-09-19T02:28:23;18.60;99.00
1700;DHT22;847;48.058;7.810;2023-09-19T02:30:55;18.60;99.00
1700;DHT22;847;48.058;7.810;2023-09-19T02:33:22;18.60;99.00
1700;DHT22;847;48.058;7.810;2023-09-19T02:35:54;18.60;99.00
1700;DHT22;847;48.058;7.810;2023-09-19T02:38:22;18.50;99.00
1700;DHT22;847;48.058;7.810;2023-09-19T02:40:50;18.60;99.00
1700;DHT22;847;48.058;7.810;2023-09-19T02:43:17;18.60;99.00
1700;DHT22;847;48.058;7.810;2023-09-19T02:45:45;18.60;99.00
1700;DHT22;847;48.058;7.810;2023-09-19T02:48:12;18.60;99.00
1700;DHT22;847;48.058;7.810;2023-09-19T02:50:39;18.50;99.00
1700;DHT22;847;48.058;7.810;2023-09-19T02:53:07;18.60;99.00
1700;DHT22;847;48.058;7.810;2023-09-19T02:55:35;18.60;99.00
1700;DHT22;847;48.058;7.810;2023-09-19T02:58:03;18.60;99.00
1700;DHT22;847;48.058;7.810;2023-09-19T03:00:33;18.50;99.00
1700;DHT22;847;48.058;7.810;2023-09-19T03:03:01;18.50;99.00
1700;DHT22;847;48.058;7.810;2023-09-19T03:05:28;18.50;99.00
1700;DHT22;847;48.058;7.810;2023-09-19T03:07:56;18.50;99.00
1700;DHT22;847;48.058;7.810;2023-09-19T03:10:27;18.50;99.00
1700;DHT22;847;48.058;7.810;2023-09-19T03:12:55;18.40;99.00
1700;DHT22;847;48.058;7.810;2023-09-19T03:15:22;18.40;99.00
1700;DHT22;847;48.058;7.810;2023-09-19T03:17:49;18.40;99.00
1700;DHT22;847;48.058;7.810;2023-09-19T03:20:17;18.40;99.00
1700;DHT22;847;48.058;7.810;2023-09-19T03:22:44;18.40;99.00
1700;DHT22;847;48.058;7.810;2023-09-19T03:25:11;18.40;99.00
1700;DHT22;847;48.058;7.810;2023-09-19T03:27:39;18.40;99.00
1700;DHT22;847;48.058;7.810;2023-09-19T03:30:07;18.40;99.00
1700;DHT22;847;48.058;7.810;2023-09-19T03:32:34;18.40;99.00
1700;DHT22;847;48.058;7.810;2023-09-19T03:35:02;18.40;99.00
1700;DHT22;847;48.058;7.810;2023-09-19T03:37:30;18.40;99.00
1700;DHT22;847;48.058;7.810;2023-09-19T03:39:57;18.40;99.00
1700;DHT22;847;48.058;7.810;2023-09-19T03:42:24;18.40;99.00
1700;DHT22;847;48.058;7.810;2023-09-19T03:44:53;18.40;99.00
1700;DHT22;847;48.058;7.810;2023-09-19T03:47:21;18.40;99.00
1700;DHT22;847;48.058;7.810;2023-09-19T03:49:47;18.40;99.00
1700;DHT22;847;48.058;7.810;2023-09-19T03:52:14;18.30;99.00
1700;DHT22;847;48.058;7.810;2023-09-19T03:54:41;18.30;99.00
1700;DHT22;847;48.058;7.810;2023-09-19T03:57:09;18.30;99.00
1700;DHT22;847;48.058;7.810;2023-09-19T03:59:36;18.30;99.00
1700;DHT22;847;48.058;7.810;2023-09-19T04:02:04;18.30;99.00
1700;DHT22;847;48.058;7.810;2023-09-19T04:04:37;18.30;99.00
1700;DHT22;847;48.058;7.810;2023-09-19T04:07:03;18.30;99.00
1700;DHT22;847;48.058;7.810;2023-09-19T04:09:30;18.30;99.00
1700;DHT22;847;48.058;7.810;2023-09-19T04:11:57;18.30;99.00
1700;DHT22;847;48.058;7.810;2023-09-19T04:14:24;18.30;99.00
1700;DHT22;847;48.058;7.810;2023-09-19T04:16:50;18.20;99.00
1700;DHT22;847;48.058;7.810;2023-09-19T04:19:20;18.20;99.00
1700;DHT22;847;48.058;7.810;2023-09-19T04:21:47;18.20;99.00
1700;DHT22;847;48.058;7.810;2023-09-19T04:24:14;18.20;99.00
1700;DHT22;847;48.058;7.810;2023-09-19T04:26:41;18.20;99.00
1700;DHT22;847;48.058;7.810;2023-09-19T04:29:09;18.20;99.00
1700;DHT22;847;48.058;7.810;2023-09-19T04:31:36;18.20;99.00
1700;DHT22;847;48.058;7.810;2023-09-19T04:34:05;18.20;99.00
1700;DHT22;847;48.058;7.810;2023-09-19T04:36:34;18.20;99.00
1700;DHT22;847;48.058;7.810;2023-09-19T04:39:02;18.20;99.00
1700;DHT22;847;48.058;7.810;2023-09-19T04:41:31;18.20;99.00
1700;DHT22;847;48.058;7.810;2023-09-19T04:43:58;18.30;99.00
1700;DHT22;847;48.058;7.810;2023-09-19T04:46:24;18.30;99.00
1700;DHT22;847;48.058;7.810;2023-09-19T04:48:51;18.20;99.00
1700;DHT22;847;48.058;7.810;2023-09-19T04:51:18;18.20;99.00
1700;DHT22;847;48.058;7.810;2023-09-19T04:53:47;18.20;99.00
1700;DHT22;847;48.058;7.810;2023-09-19T04:56:14;18.20;99.00
1700;DHT22;847;48.058;7.810;2023-09-19T04:58:41;18.20;99.00
1700;DHT22;847;48.058;7.810;2023-09-19T05:01:08;18.20;99.00
1700;DHT22;847;48.058;7.810;2023-09-19T05:03:37;18.10;99.00
1700;DHT22;847;48.058;7.810;2023-09-19T05:06:04;18.20;99.00
1700;DHT22;847;48.058;7.810;2023-09-19T05:08:30;18.10;99.00
1700;DHT22;847;48.058;7.810;2023-09-19T05:11:01;18.20;99.00
1700;DHT22;847;48.058;7.810;2023-09-19T05:13:28;18.10;99.00
1700;DHT22;847;48.058;7.810;2023-09-19T05:15:59;18.10;99.00
1700;DHT22;847;48.058;7.810;2023-09-19T05:18:27;18.10;99.00
1700;DHT22;847;48.058;7.810;2023-09-19T05:20:53;18.10;99.00
1700;DHT22;847;48.058;7.810;2023-09-19T05:23:21;18.10;99.00
1700;DHT22;847;48.058;7.810;2023-09-19T05:25:48;18.20;99.00
1700;DHT22;847;48.058;7.810;2023-09-19T05:28:16;18.10;99.00
1700;DHT22;847;48.058;7.810;2023-09-19T05:30:43;18.10;99.00
1700;DHT22;847;48.058;7.810;2023-09-19T05:33:09;18.10;99.00
1700;DHT22;847;48.058;7.810;2023-09-19T05:35:36;18.10;99.00
1700;DHT22;847;48.058;7.810;2023-09-19T05:38:05;18.10;99.00
1700;DHT22;847;48.058;7.810;2023-09-19T05:40:34;18.10;99.00
1700;DHT22;847;48.058;7.810;2023-09-19T05:43:01;18.10;99.00
1700;DHT22;847;48.058;7.810;2023-09-19T05:45:30;18.10;99.00
1700;DHT22;847;48.058;7.810;2023-09-19T05:48:07;18.10;99.00
1700;DHT22;847;48.058;7.810;2023-09-19T05:50:34;18.10;99.00
1700;DHT22;847;48.058;7.810;2023-09-19T05:53:02;18.10;99.00
1700;DHT22;847;48.058;7.810;2023-09-19T05:55:29;18.10;99.00
1700;DHT22;847;48.058;7.810;2023-09-19T05:57:56;18.10;99.00
1700;DHT22;847;48.058;7.810;2023-09-19T06:00:24;18.00;99.00
1700;DHT22;847;48.058;7.810;2023-09-19T06:02:55;18.00;99.00
1700;DHT22;847;48.058;7.810;2023-09-19T06:05:22;18.00;99.00
1700;DHT22;847;48.058;7.810;2023-09-19T06:07:49;18.00;99.00
1700;DHT22;847;48.058;7.810;2023-09-19T06:10:17;18.00;99.00
1700;DHT22;847;48.058;7.810;2023-09-19T06:12:46;18.00;99.00
1700;DHT22;847;48.058;7.810;2023-09-19T06:15:14;18.00;99.00
1700;DHT22;847;48.058;7.810;2023-09-19T06:17:42;18.00;99.00
1700;DHT22;847;48.058;7.810;2023-09-19T06:20:11;18.00;99.00
1700;DHT22;847;48.058;7.810;2023-09-19T06:22:40;18.10;99.00
1700;DHT22;847;48.058;7.810;2023-09-19T06:25:08;18.10;99.00
1700;DHT22;847;48.058;7.810;2023-09-19T06:27:40;18.10;99.00
1700;DHT22;847;48.058;7.810;2023-09-19T06:30:08;18.20;99.00
1700;DHT22;847;48.058;7.810;2023-09-19T06:32:39;18.10;99.00
1700;DHT22;847;48.058;7.810;2023-09-19T06:35:11;18.10;99.00
1700;DHT22;847;48.058;7.810;2023-09-19T06:37:38;18.10;99.00
1700;DHT22;847;48.058;7.810;2023-09-19T06:40:07;18.10;99.00
1700;DHT22;847;48.058;7.810;2023-09-19T06:42:35;18.20;99.00
1700;DHT22;847;48.058;7.810;2023-09-19T06:45:04;18.30;99.00
1700;DHT22;847;48.058;7.810;2023-09-19T06:47:36;18.30;99.00
1700;DHT22;847;48.058;7.810;2023-09-19T06:50:04;18.30;99.00
1700;DHT22;847;48.058;7.810;2023-09-19T06:52:32;18.30;99.00
1700;DHT22;847;48.058;7.810;2023-09-19T06:54:59;18.30;99.00
1700;DHT22;847;48.058;7.810;2023-09-19T06:57:29;18.30;99.00
1700;DHT22;847;48.058;7.810;2023-09-19T06:59:56;18.30;99.00
1700;DHT22;847;48.058;7.810;2023-09-19T07:02:23;18.30;99.00
1700;DHT22;847;48.058;7.810;2023-09-19T07:04:49;18.30;99.00
1700;DHT22;847;48.058;7.810;2023-09-19T07:07:16;18.40;99.00
1700;DHT22;847;48.058;7.810;2023-09-19T07:09:44;18.40;99.00
1700;DHT22;847;48.058;7.810;2023-09-19T07:12:14;18.40;99.00
1700;DHT22;847;48.058;7.810;2023-09-19T07:14:41;18.40;99.00
1700;DHT22;847;48.058;7.810;2023-09-19T07:17:07;18.40;99.00
1700;DHT22;847;48.058;7.810;2023-09-19T07:19:34;18.40;99.00
1700;DHT22;847;48.058;7.810;2023-09-19T07:22:01;18.40;99.00
1700;DHT22;847;48.058;7.810;2023-09-19T07:24:29;18.40;99.00
1700;DHT22;847;48.058;7.810;2023-09-19T07:26:58;18.50;99.00
1700;DHT22;847;48.058;7.810;2023-09-19T07:29:24;18.60;99.00
1700;DHT22;847;48.058;7.810;2023-09-19T07:31:52;18.70;99.00
1700;DHT22;847;48.058;7.810;2023-09-19T07:34:19;18.80;99.00
1700;DHT22;847;48.058;7.810;2023-09-19T07:36:47;18.80;99.00
1700;DHT22;847;48.058;7.810;2023-09-19T07:39:14;18.80;99.00
1700;DHT22;847;48.058;7.810;2023-09-19T07:41:40;18.90;99.00
1700;DHT22;847;48.058;7.810;2023-09-19T07:44:09;18.90;99.00
1700;DHT22;847;48.058;7.810;2023-09-19T07:46:36;19.10;99.00
1700;DHT22;847;48.058;7.810;2023-09-19T07:49:03;19.10;99.00
1700;DHT22;847;48.058;7.810;2023-09-19T07:51:30;19.20;99.00
1700;DHT22;847;48.058;7.810;2023-09-19T07:53:58;19.20;99.00
1700;DHT22;847;48.058;7.810;2023-09-19T07:56:25;19.20;99.00
1700;DHT22;847;48.058;7.810;2023-09-19T07:58:53;19.30;99.00
1700;DHT22;847;48.058;7.810;2023-09-19T08:01:21;19.30;99.00
1700;DHT22;847;48.058;7.810;2023-09-19T08:03:49;19.40;99.00
1700;DHT22;847;48.058;7.810;2023-09-19T08:06:16;19.50;99.00
1700;DHT22;847;48.058;7.810;2023-09-19T08:08:44;19.50;99.00
1700;DHT22;847;48.058;7.810;2023-09-19T08:11:11;19.50;99.00
1700;DHT22;847;48.058;7.810;2023-09-19T08:13:38;19.50;99.00
1700;DHT22;847;48.058;7.810;2023-09-19T08:16:09;19.50;98.80
1700;DHT22;847;48.058;7.810;2023-09-19T08:18:37;19.50;97.90
1700;DHT22;847;48.058;7.810;2023-09-19T08:21:05;19.50;98.40
1700;DHT22;847;48.058;7.810;2023-09-19T08:23:33;19.50;98.20
1700;DHT22;847;48.058;7.810;2023-09-19T08:26:00;19.60;98.60
1700;DHT22;847;48.058;7.810;2023-09-19T08:28:32;19.60;98.10
1700;DHT22;847;48.058;7.810;2023-09-19T08:31:02;19.70;97.60
1700;DHT22;847;48.058;7.810;2023-09-19T08:33:31;19.80;96.70
1700;DHT22;847;48.058;7.810;2023-09-19T08:36:00;19.80;97.90
1700;DHT22;847;48.058;7.810;2023-09-19T08:38:27;19.80;97.80
1700;DHT22;847;48.058;7.810;2023-09-19T08:40:57;19.90;97.60
1700;DHT22;847;48.058;7.810;2023-09-19T08:43:25;19.90;96.70
1700;DHT22;847;48.058;7.810;2023-09-19T08:45:56;19.90;95.60
1700;DHT22;847;48.058;7.810;2023-09-19T08:48:26;19.90;95.00
1700;DHT22;847;48.058;7.810;2023-09-19T08:50:56;20.10;95.90
1700;DHT22;847;48.058;7.810;2023-09-19T08:53:34;20.10;95.50
1700;DHT22;847;48.058;7.810;2023-09-19T08:56:03;20.20;95.30
1700;DHT22;847;48.058;7.810;2023-09-19T08:58:46;20.20;95.10
1700;DHT22;847;48.058;7.810;2023-09-19T09:01:15;20.30;94.90
1700;DHT22;847;48.058;7.810;2023-09-19T09:03:43;20.30;94.10
1700;DHT22;847;48.058;7.810;2023-09-19T09:06:14;20.40;93.60
1700;DHT22;847;48.058;7.810;2023-09-19T09:08:43;20.50;93.70
1700;DHT22;847;48.058;7.810;2023-09-19T09:11:11;20.40;93.80
1700;DHT22;847;48.058;7.810;2023-09-19T09:13:38;20.40;92.70
1700;DHT22;847;48.058;7.810;2023-09-19T09:16:07;20.40;91.00
1700;DHT22;847;48.058;7.810;2023-09-19T09:18:35;20.40;91.50
1700;DHT22;847;48.058;7.810;2023-09-19T09:21:02;20.40;91.10
1700;DHT22;847;48.058;7.810;2023-09-19T09:23:30;20.40;92.30
1700;DHT22;847;48.058;7.810;2023-09-19T09:26:00;20.40;91.80
1700;DHT22;847;48.058;7.810;2023-09-19T09:28:29;20.40;92.60
1700;DHT22;847;48.058;7.810;2023-09-19T09:30:56;20.50;90.80
1700;DHT22;847;48.058;7.810;2023-09-19T09:33:25;20.60;89.00
1700;DHT22;847;48.058;7.810;2023-09-19T09:35:55;20.80;90.70
1700;DHT22;847;48.058;7.810;2023-09-19T09:38:25;20.90;90.40
1700;DHT22;847;48.058;7.810;2023-09-19T09:40:53;21.00;89.80
1700;DHT22;847;48.058;7.810;2023-09-19T09:43:28;21.00;89.90
1700;DHT22;847;48.058;7.810;2023-09-19T09:46:08;21.00;88.80
1700;DHT22;847;48.058;7.810;2023-09-19T09:48:58;21.00;88.90
1700;DHT22;847;48.058;7.810;2023-09-19T09:52:02;21.10;88.20
1700;DHT22;847;48.058;7.810;2023-09-19T09:54:31;21.20;87.80
1700;DHT22;847;48.058;7.810;2023-09-19T09:57:03;21.20;88.30
1700;DHT22;847;48.058;7.810;2023-09-19T09:59:48;21.10;87.00
1700;DHT22;847;48.058;7.810;2023-09-19T10:02:17;21.10;87.20
1700;DHT22;847;48.058;7.810;2023-09-19T10:04:53;21.10;88.10
1700;DHT22;847;48.058;7.810;2023-09-19T10:07:29;21.20;87.90
1700;DHT22;847;48.058;7.810;2023-09-19T10:10:03;21.20;86.70
1700;DHT22;847;48.058;7.810;2023-09-19T10:12:43;21.20;85.00
1700;DHT22;847;48.058;7.810;2023-09-19T10:15:16;21.30;85.00
1700;DHT22;847;48.058;7.810;2023-09-19T10:17:46;21.40;84.30
1700;DHT22;847;48.058;7.810;2023-09-19T10:20:14;21.40;84.60
1700;DHT22;847;48.058;7.810;2023-09-19T10:22:59;21.30;84.90
1700;DHT22;847;48.058;7.810;2023-09-19T10:25:27;21.30;84.90
1700;DHT22;847;48.058;7.810;2023-09-19T10:27:56;21.20;84.10
1700;DHT22;847;48.058;7.810;2023-09-19T10:30:31;21.30;84.60
1700;DHT22;847;48.058;7.810;2023-09-19T10:33:01;21.30;85.70
1700;DHT22;847;48.058;7.810;2023-09-19T10:35:29;21.20;83.60
1700;DHT22;847;48.058;7.810;2023-09-19T10:37:59;21.30;84.00
1700;DHT22;847;48.058;7.810;2023-09-19T10:40:27;21.30;82.20
1700;DHT22;847;48.058;7.810;2023-09-19T10:43:01;21.30;83.50
1700;DHT22;847;48.058;7.810;2023-09-19T10:45:34;21.40;83.60
1700;DHT22;847;48.058;7.810;2023-09-19T10:48:04;21.60;84.50
1700;DHT22;847;48.058;7.810;2023-09-19T10:50:41;21.70;83.20
1700;DHT22;847;48.058;7.810;2023-09-19T10:53:11;21.80;81.20
1700;DHT22;847;48.058;7.810;2023-09-19T10:55:39;22.00;82.80
1700;DHT22;847;48.058;7.810;2023-09-19T10:58:06;22.10;81.40
1700;DHT22;847;48.058;7.810;2023-09-19T11:00:53;22.10;80.00
1700;DHT22;847;48.058;7.810;2023-09-19T11:03:21;22.10;78.50
1700;DHT22;847;48.058;7.810;2023-09-19T11:06:05;22.20;78.80
1700;DHT22;847;48.058;7.810;2023-09-19T11:11:49;22.20;78.10
1700;DHT22;847;48.058;7.810;2023-09-19T11:14:39;22.40;76.90
1700;DHT22;847;48.058;7.810;2023-09-19T11:17:35;22.50;78.20
1700;DHT22;847;48.058;7.810;2023-09-19T11:20:21;22.70;78.90
1700;DHT22;847;48.058;7.810;2023-09-19T11:23:28;22.80;77.40
1700;DHT22;847;48.058;7.810;2023-09-19T11:25:56;22.90;76.50
1700;DHT22;847;48.058;7.810;2023-09-19T11:28:33;22.90;75.30
1700;DHT22;847;48.058;7.810;2023-09-19T11:34:47;22.90;76.20
1700;DHT22;847;48.058;7.810;2023-09-19T11:40:36;23.00;74.80
1700;DHT22;847;48.058;7.810;2023-09-19T11:43:30;23.00;76.00
1700;DHT22;847;48.058;7.810;2023-09-19T11:46:07;23.00;75.80
1700;DHT22;847;48.058;7.810;2023-09-19T11:48:41;23.10;73.50
1700;DHT22;847;48.058;7.810;2023-09-19T11:51:15;23.10;72.80
1700;DHT22;847;48.058;7.810;2023-09-19T11:53:48;23.00;75.60
1700;DHT22;847;48.058;7.810;2023-09-19T11:56:16;22.90;74.20
1700;DHT22;847;48.058;7.810;2023-09-19T11:58:44;22.80;73.30
1700;DHT22;847;48.058;7.810;2023-09-19T12:01:13;22.80;74.90
1700;DHT22;847;48.058;7.810;2023-09-19T12:03:47;23.30;73.80
1700;DHT22;847;48.058;7.810;2023-09-19T12:06:16;23.80;71.00
1700;DHT22;847;48.058;7.810;2023-09-19T12:08:44;24.20;69.50
1700;DHT22;847;48.058;7.810;2023-09-19T12:11:16;24.60;71.50
1700;DHT22;847;48.058;7.810;2023-09-19T12:13:46;24.90;70.80
1700;DHT22;847;48.058;7.810;2023-09-19T12:16:15;25.10;70.40
1700;DHT22;847;48.058;7.810;2023-09-19T12:18:43;25.20;69.70
1700;DHT22;847;48.058;7.810;2023-09-19T12:21:26;25.20;67.40
1700;DHT22;847;48.058;7.810;2023-09-19T12:24:04;25.60;69.40
1700;DHT22;847;48.058;7.810;2023-09-19T12:26:39;25.80;69.00
1700;DHT22;847;48.058;7.810;2023-09-19T12:29:14;25.80;67.50
1700;DHT22;847;48.058;7.810;2023-09-19T12:31:52;25.60;66.00
1700;DHT22;847;48.058;7.810;2023-09-19T12:34:22;25.70;67.00
1700;DHT22;847;48.058;7.810;2023-09-19T12:37:07;26.00;66.10
1700;DHT22;847;48.058;7.810;2023-09-19T12:39:42;26.00;65.40
1700;DHT22;847;48.058;7.810;2023-09-19T12:42:12;25.90;63.20
1700;DHT22;847;48.058;7.810;2023-09-19T12:44:41;25.90;64.40
1700;DHT22;847;48.058;7.810;2023-09-19T12:47:11;26.00;64.30
1700;DHT22;847;48.058;7.810;2023-09-19T12:52:46;25.80;63.50
1700;DHT22;847;48.058;7.810;2023-09-19T12:55:21;26.00;65.90
1700;DHT22;847;48.058;7.810;2023-09-19T12:58:00;25.90;63.70
1700;DHT22;847;48.058;7.810;2023-09-19T13:00:36;26.00;64.70
1700;DHT22;847;48.058;7.810;2023-09-19T13:03:15;25.80;62.90
1700;DHT22;847;48.058;7.810;2023-09-19T13:05:50;25.70;61.90
1700;DHT22;847;48.058;7.810;2023-09-19T13:08:20;25.70;60.80
1700;DHT22;847;48.058;7.810;2023-09-19T13:11:06;25.60;61.90
1700;DHT22;847;48.058;7.810;2023-09-19T13:13:40;25.70;63.10
1700;DHT22;847;48.058;7.810;2023-09-19T13:16:07;25.70;63.20
1700;DHT22;847;48.058;7.810;2023-09-19T13:18:48;25.60;62.90
1700;DHT22;847;48.058;7.810;2023-09-19T13:21:17;25.50;62.60
1700;DHT22;847;48.058;7.810;2023-09-19T13:23:53;25.60;63.70
1700;DHT22;847;48.058;7.810;2023-09-19T13:26:20;25.50;62.90
1700;DHT22;847;48.058;7.810;2023-09-19T13:28:48;25.40;62.90
1700;DHT22;847;48.058;7.810;2023-09-19T13:31:15;25.40;62.00
1700;DHT22;847;48.058;7.810;2023-09-19T13:33:45;25.50;62.90
1700;DHT22;847;48.058;7.810;2023-09-19T13:36:12;25.40;63.40
1700;DHT22;847;48.058;7.810;2023-09-19T13:38:39;25.40;60.90
1700;DHT22;847;48.058;7.810;2023-09-19T13:41:09;25.40;62.70
1700;DHT22;847;48.058;7.810;2023-09-19T13:43:36;25.50;61.90
1700;DHT22;847;48.058;7.810;2023-09-19T13:46:04;25.40;60.60
1700;DHT22;847;48.058;7.810;2023-09-19T13:48:33;25.40;61.50
1700;DHT22;847;48.058;7.810;2023-09-19T13:51:02;25.40;61.80
1700;DHT22;847;48.058;7.810;2023-09-19T13:53:30;25.40;59.50
1700;DHT22;847;48.058;7.810;2023-09-19T13:55:57;25.40;59.80
1700;DHT22;847;48.058;7.810;2023-09-19T13:58:25;25.30;58.70
1700;DHT22;847;48.058;7.810;2023-09-19T14:00:52;25.40;61.60
1700;DHT22;847;48.058;7.810;2023-09-19T14:03:20;25.50;60.00
1700;DHT22;847;48.058;7.810;2023-09-19T14:05:47;25.50;60.60
1700;DHT22;847;48.058;7.810;2023-09-19T14:08:17;25.40;60.20
1700;DHT22;847;48.058;7.810;2023-09-19T14:10:43;25.30;58.10
1700;DHT22;847;48.058;7.810;2023-09-19T14:13:10;25.10;59.50
1700;DHT22;847;48.058;7.810;2023-09-19T14:15:39;25.00;59.60
1700;DHT22;847;48.058;7.810;2023-09-19T14:18:08;25.00;61.40
1700;DHT22;847;48.058;7.810;2023-09-19T14:20:38;25.10;61.40
1700;DHT22;847;48.058;7.810;2023-09-19T14:23:05;25.10;60.30
1700;DHT22;847;48.058;7.810;2023-09-19T14:25:34;25.10;60.40
1700;DHT22;847;48.058;7.810;2023-09-19T14:28:01;25.10;59.60
1700;DHT22;847;48.058;7.810;2023-09-19T14:30:28;25.10;61.60
1700;DHT22;847;48.058;7.810;2023-09-19T14:32:56;25.00;60.50
1700;DHT22;847;48.058;7.810;2023-09-19T14:35:24;25.00;61.80
1700;DHT22;847;48.058;7.810;2023-09-19T14:37:50;25.00;62.30
1700;DHT22;847;48.058;7.810;2023-09-19T14:40:18;24.90;62.10
1700;DHT22;847;48.058;7.810;2023-09-19T14:42:46;24.90;62.90
1700;DHT22;847;48.058;7.810;2023-09-19T14:45:12;24.90;62.20
1700;DHT22;847;48.058;7.810;2023-09-19T14:47:42;25.00;62.40
1700;DHT22;847;48.058;7.810;2023-09-19T14:50:10;25.00;61.00
1700;DHT22;847;48.058;7.810;2023-09-19T14:52:38;24.80;62.90
1700;DHT22;847;48.058;7.810;2023-09-19T14:55:06;24.90;64.70
1700;DHT22;847;48.058;7.810;2023-09-19T14:57:34;25.00;64.10
1700;DHT22;847;48.058;7.810;2023-09-19T15:00:06;25.00;63.00
1700;DHT22;847;48.058;7.810;2023-09-19T15:02:38;25.00;63.70
1700;DHT22;847;48.058;7.810;2023-09-19T15:05:06;25.00;63.10
1700;DHT22;847;48.058;7.810;2023-09-19T15:07:35;24.90;64.70
1700;DHT22;847;48.058;7.810;2023-09-19T15:10:03;25.00;64.00
1700;DHT22;847;48.058;7.810;2023-09-19T15:12:32;24.90;64.30
1700;DHT22;847;48.058;7.810;2023-09-19T15:15:00;24.80;64.10
1700;DHT22;847;48.058;7.810;2023-09-19T15:17:27;24.80;64.10
1700;DHT22;847;48.058;7.810;2023-09-19T15:19:54;24.80;64.60
1700;DHT22;847;48.058;7.810;2023-09-19T15:22:21;24.70;64.10
1700;DHT22;847;48.058;7.810;2023-09-19T15:24:50;24.70;65.50
1700;DHT22;847;48.058;7.810;2023-09-19T15:27:17;24.60;64.70
1700;DHT22;847;48.058;7.810;2023-09-19T15:29:45;24.60;63.90
1700;DHT22;847;48.058;7.810;2023-09-19T15:32:13;24.60;64.70
1700;DHT22;847;48.058;7.810;2023-09-19T15:34:39;24.70;64.30
1700;DHT22;847;48.058;7.810;2023-09-19T15:37:06;24.70;65.10
1700;DHT22;847;48.058;7.810;2023-09-19T15:39:33;24.60;65.80
1700;DHT22;847;48.058;7.810;2023-09-19T15:42:01;24.60;65.90
1700;DHT22;847;48.058;7.810;2023-09-19T15:44:28;24.60;66.40
1700;DHT22;847;48.058;7.810;2023-09-19T15:46:55;24.60;66.10
1700;DHT22;847;48.058;7.810;2023-09-19T15:49:22;24.70;66.70
1700;DHT22;847;48.058;7.810;2023-09-19T15:51:49;24.70;66.50
1700;DHT22;847;48.058;7.810;2023-09-19T15:54:16;24.60;66.10
1700;DHT22;847;48.058;7.810;2023-09-19T15:56:45;24.60;67.00
1700;DHT22;847;48.058;7.810;2023-09-19T15:59:13;24.60;66.30
1700;DHT22;847;48.058;7.810;2023-09-19T16:01:41;24.50;66.20
1700;DHT22;847;48.058;7.810;2023-09-19T16:04:08;24.60;67.20
1700;DHT22;847;48.058;7.810;2023-09-19T16:06:36;24.60;66.90
1700;DHT22;847;48.058;7.810;2023-09-19T16:09:04;24.50;66.40
1700;DHT22;847;48.058;7.810;2023-09-19T16:11:33;24.50;66.70
1700;DHT22;847;48.058;7.810;2023-09-19T16:14:00;24.60;66.90
1700;DHT22;847;48.058;7.810;2023-09-19T16:16:29;24.50;66.30
1700;DHT22;847;48.058;7.810;2023-09-19T16:18:58;24.40;67.00
1700;DHT22;847;48.058;7.810;2023-09-19T16:21:26;24.40;67.30
1700;DHT22;847;48.058;7.810;2023-09-19T16:23:54;24.30;67.50
1700;DHT22;847;48.058;7.810;2023-09-19T16:26:21;24.10;68.10
1700;DHT22;847;48.058;7.810;2023-09-19T16:28:50;24.20;68.20
1700;DHT22;847;48.058;7.810;2023-09-19T16:31:17;24.20;68.10
1700;DHT22;847;48.058;7.810;2023-09-19T16:33:47;24.00;67.70
1700;DHT22;847;48.058;7.810;2023-09-19T16:36:15;24.00;68.70
1700;DHT22;847;48.058;7.810;2023-09-19T16:38:43;24.00;68.90
1700;DHT22;847;48.058;7.810;2023-09-19T16:41:11;24.10;68.70
1700;DHT22;847;48.058;7.810;2023-09-19T16:43:39;24.10;69.40
1700;DHT22;847;48.058;7.810;2023-09-19T16:46:06;24.00;69.10
1700;DHT22;847;48.058;7.810;2023-09-19T16:48:39;23.80;69.50